sensor_id;sensor_type;location;lat;lon;timestamp;temperature;humidity
68977;SHT31;56029;52.568;13.588;2023-02-25T00:01:10;3.54;99.32
68977;SHT31;56029;52.568;13.588;2023-02-25T00:03:37;3.51;99.45
68977;SHT31;56029;52.568;13.588;2023-02-25T00:06:04;3.45;99.99
68977;SHT31;56029;52.568;13.588;2023-02-25T00:08:30;3.41;99.99
68977;SHT31;56029;52.568;13.588;2023-02-25T00:11:00;3.14;99.99
68977;SHT31;56029;52.568;13.588;2023-02-25T00:13:27;2.67;99.99
68977;SHT31;56029;52.568;13.588;2023-02-25T00:15:53;2.22;99.99
68977;SHT31;56029;52.568;13.588;2023-02-25T00:18:19;2.00;99.99
68977;SHT31;56029;52.568;13.588;2023-02-25T00:20:44;1.90;99.99
68977;SHT31;56029;52.568;13.588;2023-02-25T00:23:10;1.84;99.60
68977;SHT31;56029;52.568;13.588;2023-02-25T00:25:35;1.83;99.61
68977;SHT31;56029;52.568;13.588;2023-02-25T00:28:01;1.81;99.66
68977;SHT31;56029;52.568;13.588;2023-02-25T00:30:31;1.85;99.69
68977;SHT31;56029;52.568;13.588;2023-02-25T00:32:57;1.81;99.72
68977;SHT31;56029;52.568;13.588;2023-02-25T00:35:23;1.77;99.74
68977;SHT31;56029;52.568;13.588;2023-02-25T00:37:52;1.77;99.74
68977;SHT31;56029;52.568;13.588;2023-02-25T00:40:18;1.80;99.76
68977;SHT31;56029;52.568;13.588;2023-02-25T00:42:44;1.67;99.83
68977;SHT31;56029;52.568;13.588;2023-02-25T00:45:10;1.67;99.81
68977;SHT31;56029;52.568;13.588;2023-02-25T00:47:36;1.67;99.85
68977;SHT31;56029;52.568;13.588;2023-02-25T00:50:06;1.64;99.84
68977;SHT31;56029;52.568;13.588;2023-02-25T00:52:34;1.54;99.85
68977;SHT31;56029;52.568;13.588;2023-02-25T00:55:00;1.56;99.85
68977;SHT31;56029;52.568;13.588;2023-02-25T00:57:25;1.56;99.88
68977;SHT31;56029;52.568;13.588;2023-02-25T00:59:51;1.67;99.90
68977;SHT31;56029;52.568;13.588;2023-02-25T01:02:16;1.63;99.88
68977;SHT31;56029;52.568;13.588;2023-02-25T01:04:42;1.68;99.91
68977;SHT31;56029;52.568;13.588;2023-02-25T01:07:08;1.73;99.94
68977;SHT31;56029;52.568;13.588;2023-02-25T01:09:33;1.70;99.96
68977;SHT31;56029;52.568;13.588;2023-02-25T01:11:59;1.70;99.99
68977;SHT31;56029;52.568;13.588;2023-02-25T01:14:25;1.62;99.99
68977;SHT31;56029;52.568;13.588;2023-02-25T01:16:52;1.59;99.99
68977;SHT31;56029;52.568;13.588;2023-02-25T01:19:20;1.59;99.99
68977;SHT31;56029;52.568;13.588;2023-02-25T01:21:49;1.60;99.99
68977;SHT31;56029;52.568;13.588;2023-02-25T01:24:17;1.63;99.99
68977;SHT31;56029;52.568;13.588;2023-02-25T01:26:46;1.70;99.99
68977;SHT31;56029;52.568;13.588;2023-02-25T01:29:18;1.70;99.99
68977;SHT31;56029;52.568;13.588;2023-02-25T01:31:44;1.74;99.99
68977;SHT31;56029;52.568;13.588;2023-02-25T01:34:14;1.75;99.99
68977;SHT31;56029;52.568;13.588;2023-02-25T01:36:41;1.73;99.99
68977;SHT31;56029;52.568;13.588;2023-02-25T01:39:07;1.80;99.99
68977;SHT31;56029;52.568;13.588;2023-02-25T01:41:34;1.85;99.99
68977;SHT31;56029;52.568;13.588;2023-02-25T01:44:16;1.81;99.99
68977;SHT31;56029;52.568;13.588;2023-02-25T01:46:44;1.87;99.99
68977;SHT31;56029;52.568;13.588;2023-02-25T01:49:15;1.91;99.99
68977;SHT31;56029;52.568;13.588;2023-02-25T01:51:42;1.94;99.99
68977;SHT31;56029;52.568;13.588;2023-02-25T01:54:09;1.93;99.99
68977;SHT31;56029;52.568;13.588;2023-02-25T01:56:37;1.95;99.99
68977;SHT31;56029;52.568;13.588;2023-02-25T01:59:05;2.00;99.99
68977;SHT31;56029;52.568;13.588;2023-02-25T02:01:32;2.04;99.99
68977;SHT31;56029;52.568;13.588;2023-02-25T02:04:00;2.07;99.99
68977;SHT31;56029;52.568;13.588;2023-02-25T02:06:49;2.12;99.99
68977;SHT31;56029;52.568;13.588;2023-02-25T02:09:23;2.18;99.99
68977;SHT31;56029;52.568;13.588;2023-02-25T02:11:50;2.17;99.99
68977;SHT31;56029;52.568;13.588;2023-02-25T02:14:20;2.22;99.99
68977;SHT31;56029;52.568;13.588;2023-02-25T02:22:17;2.35;99.99
68977;SHT31;56029;52.568;13.588;2023-02-25T02:27:48;2.42;99.99
68977;SHT31;56029;52.568;13.588;2023-02-25T02:33:24;2.52;99.99
68977;SHT31;56029;52.568;13.588;2023-02-25T02:35:55;2.52;99.99
68977;SHT31;56029;52.568;13.588;2023-02-25T02:38:36;2.54;99.99
68977;SHT31;56029;52.568;13.588;2023-02-25T02:41:23;2.54;99.99
68977;SHT31;56029;52.568;13.588;2023-02-25T02:43:57;2.59;99.99
68977;SHT31;56029;52.568;13.588;2023-02-25T02:46:47;2.59;99.99
68977;SHT31;56029;52.568;13.588;2023-02-25T02:49:23;2.60;99.99
68977;SHT31;56029;52.568;13.588;2023-02-25T02:51:57;2.59;99.99
68977;SHT31;56029;52.568;13.588;2023-02-25T02:54:30;2.64;99.99
68977;SHT31;56029;52.568;13.588;2023-02-25T02:56:57;2.62;99.99
68977;SHT31;56029;52.568;13.588;2023-02-25T02:59:27;2.64;99.99
68977;SHT31;56029;52.568;13.588;2023-02-25T03:01:57;2.60;99.99
68977;SHT31;56029;52.568;13.588;2023-02-25T03:04:27;2.57;99.99
68977;SHT31;56029;52.568;13.588;2023-02-25T03:06:58;2.59;99.99
68977;SHT31;56029;52.568;13.588;2023-02-25T03:09:32;2.57;99.99
68977;SHT31;56029;52.568;13.588;2023-02-25T03:11:59;2.56;99.99
68977;SHT31;56029;52.568;13.588;2023-02-25T03:14:25;2.54;99.99
68977;SHT31;56029;52.568;13.588;2023-02-25T03:16:56;2.54;99.99
68977;SHT31;56029;52.568;13.588;2023-02-25T03:19:33;2.56;99.99
68977;SHT31;56029;52.568;13.588;2023-02-25T03:22:06;2.56;99.99
68977;SHT31;56029;52.568;13.588;2023-02-25T03:24:38;2.57;99.99
68977;SHT31;56029;52.568;13.588;2023-02-25T03:27:22;2.54;99.99
68977;SHT31;56029;52.568;13.588;2023-02-25T03:29:49;2.56;99.99
68977;SHT31;56029;52.568;13.588;2023-02-25T03:32:15;2.57;99.99
68977;SHT31;56029;52.568;13.588;2023-02-25T03:34:48;2.54;99.99
68977;SHT31;56029;52.568;13.588;2023-02-25T03:37:21;2.54;99.99
68977;SHT31;56029;52.568;13.588;2023-02-25T03:39:50;2.50;99.99
68977;SHT31;56029;52.568;13.588;2023-02-25T03:42:20;2.52;99.99
68977;SHT31;56029;52.568;13.588;2023-02-25T03:44:51;2.50;99.99
68977;SHT31;56029;52.568;13.588;2023-02-25T03:47:19;2.46;99.99
68977;SHT31;56029;52.568;13.588;2023-02-25T03:52:20;2.42;99.99
68977;SHT31;56029;52.568;13.588;2023-02-25T03:54:54;2.43;99.99
68977;SHT31;56029;52.568;13.588;2023-02-25T03:57:22;2.41;99.99
68977;SHT31;56029;52.568;13.588;2023-02-25T03:59:50;2.41;99.99
68977;SHT31;56029;52.568;13.588;2023-02-25T04:02:18;2.35;99.99
68977;SHT31;56029;52.568;13.588;2023-02-25T04:04:44;2.28;99.99
68977;SHT31;56029;52.568;13.588;2023-02-25T04:07:10;2.25;99.99
68977;SHT31;56029;52.568;13.588;2023-02-25T04:09:35;2.21;99.99
68977;SHT31;56029;52.568;13.588;2023-02-25T04:12:01;2.20;99.99
68977;SHT31;56029;52.568;13.588;2023-02-25T04:14:26;2.18;99.99
68977;SHT31;56029;52.568;13.588;2023-02-25T04:16:52;2.15;99.99
68977;SHT31;56029;52.568;13.588;2023-02-25T04:19:17;2.12;99.99
68977;SHT31;56029;52.568;13.588;2023-02-25T04:21:43;2.17;99.99
68977;SHT31;56029;52.568;13.588;2023-02-25T04:24:08;2.20;99.99
68977;SHT31;56029;52.568;13.588;2023-02-25T04:26:34;2.22;99.99
68977;SHT31;56029;52.568;13.588;2023-02-25T04:29:00;2.22;99.99
68977;SHT31;56029;52.568;13.588;2023-02-25T04:31:26;2.22;99.99
68977;SHT31;56029;52.568;13.588;2023-02-25T04:33:51;2.24;99.99
68977;SHT31;56029;52.568;13.588;2023-02-25T04:36:22;2.21;99.99
68977;SHT31;56029;52.568;13.588;2023-02-25T04:38:48;2.22;99.99
68977;SHT31;56029;52.568;13.588;2023-02-25T04:41:13;2.22;99.99
68977;SHT31;56029;52.568;13.588;2023-02-25T04:43:39;2.24;99.99
68977;SHT31;56029;52.568;13.588;2023-02-25T04:46:04;2.22;99.99
68977;SHT31;56029;52.568;13.588;2023-02-25T04:48:30;2.24;99.99
68977;SHT31;56029;52.568;13.588;2023-02-25T04:51:01;2.15;99.99
68977;SHT31;56029;52.568;13.588;2023-02-25T04:53:26;2.12;99.99
68977;SHT31;56029;52.568;13.588;2023-02-25T04:55:52;2.11;99.99
68977;SHT31;56029;52.568;13.588;2023-02-25T04:58:18;2.05;99.99
68977;SHT31;56029;52.568;13.588;2023-02-25T05:00:43;2.01;99.99
68977;SHT31;56029;52.568;13.588;2023-02-25T05:03:13;2.01;99.99
68977;SHT31;56029;52.568;13.588;2023-02-25T05:05:39;2.04;99.99
68977;SHT31;56029;52.568;13.588;2023-02-25T05:08:05;2.04;99.99
68977;SHT31;56029;52.568;13.588;2023-02-25T05:10:30;2.02;99.99
68977;SHT31;56029;52.568;13.588;2023-02-25T05:12:56;2.02;99.99
68977;SHT31;56029;52.568;13.588;2023-02-25T05:15:21;2.04;99.99
68977;SHT31;56029;52.568;13.588;2023-02-25T05:17:47;2.05;99.99
68977;SHT31;56029;52.568;13.588;2023-02-25T05:20:13;1.97;99.99
68977;SHT31;56029;52.568;13.588;2023-02-25T05:22:39;1.93;99.99
68977;SHT31;56029;52.568;13.588;2023-02-25T05:25:06;1.87;99.99
68977;SHT31;56029;52.568;13.588;2023-02-25T05:27:32;1.84;99.99
68977;SHT31;56029;52.568;13.588;2023-02-25T05:29:59;1.78;99.99
68977;SHT31;56029;52.568;13.588;2023-02-25T05:32:24;1.80;99.99
68977;SHT31;56029;52.568;13.588;2023-02-25T05:34:50;1.80;99.99
68977;SHT31;56029;52.568;13.588;2023-02-25T05:37:15;1.83;99.99
68977;SHT31;56029;52.568;13.588;2023-02-25T05:39:41;1.83;99.99
68977;SHT31;56029;52.568;13.588;2023-02-25T05:42:06;1.84;99.99
68977;SHT31;56029;52.568;13.588;2023-02-25T05:44:32;1.84;99.99
68977;SHT31;56029;52.568;13.588;2023-02-25T05:46:58;1.85;99.99
68977;SHT31;56029;52.568;13.588;2023-02-25T05:49:23;1.85;99.99
68977;SHT31;56029;52.568;13.588;2023-02-25T05:51:49;1.85;99.99
68977;SHT31;56029;52.568;13.588;2023-02-25T05:54:15;1.88;99.99
68977;SHT31;56029;52.568;13.588;2023-02-25T05:56:41;1.90;99.99
68977;SHT31;56029;52.568;13.588;2023-02-25T05:59:10;1.88;99.99
68977;SHT31;56029;52.568;13.588;2023-02-25T06:01:36;1.87;99.99
68977;SHT31;56029;52.568;13.588;2023-02-25T06:04:01;1.81;99.99
68977;SHT31;56029;52.568;13.588;2023-02-25T06:06:28;1.80;99.99
68977;SHT31;56029;52.568;13.588;2023-02-25T06:08:55;1.83;99.99
68977;SHT31;56029;52.568;13.588;2023-02-25T06:11:23;1.80;99.99
68977;SHT31;56029;52.568;13.588;2023-02-25T06:13:51;1.77;99.99
68977;SHT31;56029;52.568;13.588;2023-02-25T06:16:17;1.74;99.99
68977;SHT31;56029;52.568;13.588;2023-02-25T06:18:44;1.73;99.99
68977;SHT31;56029;52.568;13.588;2023-02-25T06:21:11;1.67;99.99
68977;SHT31;56029;52.568;13.588;2023-02-25T06:23:39;1.62;99.99
68977;SHT31;56029;52.568;13.588;2023-02-25T06:26:06;1.62;99.99
68977;SHT31;56029;52.568;13.588;2023-02-25T06:28:33;1.62;99.99
68977;SHT31;56029;52.568;13.588;2023-02-25T06:30:59;1.62;99.99
68977;SHT31;56029;52.568;13.588;2023-02-25T06:33:25;1.60;99.99
68977;SHT31;56029;52.568;13.588;2023-02-25T06:35:52;1.62;99.99
68977;SHT31;56029;52.568;13.588;2023-02-25T06:38:18;1.50;99.99
68977;SHT31;56029;52.568;13.588;2023-02-25T06:40:44;1.50;99.99
68977;SHT31;56029;52.568;13.588;2023-02-25T06:43:10;1.47;99.99
68977;SHT31;56029;52.568;13.588;2023-02-25T06:45:35;1.40;99.99
68977;SHT31;56029;52.568;13.588;2023-02-25T06:48:01;1.35;99.99
68977;SHT31;56029;52.568;13.588;2023-02-25T06:50:26;1.28;99.99
68977;SHT31;56029;52.568;13.588;2023-02-25T06:52:52;1.25;99.99
68977;SHT31;56029;52.568;13.588;2023-02-25T06:55:18;1.23;99.99
68977;SHT31;56029;52.568;13.588;2023-02-25T06:57:43;1.28;99.99
68977;SHT31;56029;52.568;13.588;2023-02-25T07:00:09;1.26;99.99
68977;SHT31;56029;52.568;13.588;2023-02-25T07:02:35;1.25;99.99
68977;SHT31;56029;52.568;13.588;2023-02-25T07:05:00;1.21;99.99
68977;SHT31;56029;52.568;13.588;2023-02-25T07:07:27;1.13;99.99
68977;SHT31;56029;52.568;13.588;2023-02-25T07:09:53;1.13;99.99
68977;SHT31;56029;52.568;13.588;2023-02-25T07:12:19;1.13;99.99
68977;SHT31;56029;52.568;13.588;2023-02-25T07:14:45;1.13;99.99
68977;SHT31;56029;52.568;13.588;2023-02-25T07:17:10;1.13;99.99
68977;SHT31;56029;52.568;13.588;2023-02-25T07:19:36;1.16;99.99
68977;SHT31;56029;52.568;13.588;2023-02-25T07:22:02;1.16;99.99
68977;SHT31;56029;52.568;13.588;2023-02-25T07:24:27;1.18;99.99
68977;SHT31;56029;52.568;13.588;2023-02-25T07:26:53;1.18;99.99
68977;SHT31;56029;52.568;13.588;2023-02-25T07:29:20;1.21;99.99
68977;SHT31;56029;52.568;13.588;2023-02-25T07:31:45;1.26;99.99
68977;SHT31;56029;52.568;13.588;2023-02-25T07:34:12;1.28;99.99
68977;SHT31;56029;52.568;13.588;2023-02-25T07:36:39;1.32;99.99
68977;SHT31;56029;52.568;13.588;2023-02-25T07:39:05;1.36;99.99
68977;SHT31;56029;52.568;13.588;2023-02-25T07:41:31;1.36;99.99
68977;SHT31;56029;52.568;13.588;2023-02-25T07:43:57;1.38;99.99
68977;SHT31;56029;52.568;13.588;2023-02-25T07:46:23;1.44;99.99
68977;SHT31;56029;52.568;13.588;2023-02-25T07:48:50;1.66;99.99
68977;SHT31;56029;52.568;13.588;2023-02-25T07:51:19;1.73;99.99
68977;SHT31;56029;52.568;13.588;2023-02-25T07:53:46;1.67;99.99
68977;SHT31;56029;52.568;13.588;2023-02-25T07:56:13;1.60;99.99
68977;SHT31;56029;52.568;13.588;2023-02-25T07:58:40;1.57;99.99
68977;SHT31;56029;52.568;13.588;2023-02-25T08:01:20;1.60;99.99
68977;SHT31;56029;52.568;13.588;2023-02-25T08:03:50;1.57;99.99
68977;SHT31;56029;52.568;13.588;2023-02-25T08:06:16;1.57;99.99
68977;SHT31;56029;52.568;13.588;2023-02-25T08:08:41;1.59;99.99
68977;SHT31;56029;52.568;13.588;2023-02-25T08:11:09;1.59;99.99
68977;SHT31;56029;52.568;13.588;2023-02-25T08:13:36;1.62;99.99
68977;SHT31;56029;52.568;13.588;2023-02-25T08:16:11;1.60;99.99
68977;SHT31;56029;52.568;13.588;2023-02-25T08:18:37;1.68;99.99
68977;SHT31;56029;52.568;13.588;2023-02-25T08:21:04;1.66;99.99
68977;SHT31;56029;52.568;13.588;2023-02-25T08:23:29;1.67;99.99
68977;SHT31;56029;52.568;13.588;2023-02-25T08:25:56;1.70;99.99
68977;SHT31;56029;52.568;13.588;2023-02-25T08:28:23;1.70;99.99
68977;SHT31;56029;52.568;13.588;2023-02-25T08:30:51;1.71;99.99
68977;SHT31;56029;52.568;13.588;2023-02-25T08:33:17;1.78;99.99
68977;SHT31;56029;52.568;13.588;2023-02-25T08:35:43;1.81;99.99
68977;SHT31;56029;52.568;13.588;2023-02-25T08:38:09;1.84;99.99
68977;SHT31;56029;52.568;13.588;2023-02-25T08:40:38;1.81;99.99
68977;SHT31;56029;52.568;13.588;2023-02-25T08:43:04;1.83;99.99
68977;SHT31;56029;52.568;13.588;2023-02-25T08:45:30;1.77;99.99
68977;SHT31;56029;52.568;13.588;2023-02-25T08:47:56;1.75;99.99
68977;SHT31;56029;52.568;13.588;2023-02-25T08:50:22;1.75;99.99
68977;SHT31;56029;52.568;13.588;2023-02-25T08:52:49;1.75;99.99
68977;SHT31;56029;52.568;13.588;2023-02-25T08:55:15;1.77;99.99
68977;SHT31;56029;52.568;13.588;2023-02-25T08:57:41;1.80;99.99
68977;SHT31;56029;52.568;13.588;2023-02-25T09:00:09;1.75;99.99
68977;SHT31;56029;52.568;13.588;2023-02-25T09:02:37;1.77;99.99
68977;SHT31;56029;52.568;13.588;2023-02-25T09:05:03;1.77;99.99
68977;SHT31;56029;52.568;13.588;2023-02-25T09:07:29;1.81;99.99
68977;SHT31;56029;52.568;13.588;2023-02-25T09:09:54;1.81;99.77
68977;SHT31;56029;52.568;13.588;2023-02-25T09:12:20;1.78;99.26
68977;SHT31;56029;52.568;13.588;2023-02-25T09:14:46;1.83;99.99
68977;SHT31;56029;52.568;13.588;2023-02-25T09:17:11;1.80;99.98
68977;SHT31;56029;52.568;13.588;2023-02-25T09:19:37;1.80;99.51
68977;SHT31;56029;52.568;13.588;2023-02-25T09:22:04;1.81;99.63
68977;SHT31;56029;52.568;13.588;2023-02-25T09:24:30;1.81;99.85
68977;SHT31;56029;52.568;13.588;2023-02-25T09:26:58;1.84;99.36
68977;SHT31;56029;52.568;13.588;2023-02-25T09:29:25;1.83;99.22
68977;SHT31;56029;52.568;13.588;2023-02-25T09:31:50;1.84;99.40
68977;SHT31;56029;52.568;13.588;2023-02-25T09:34:18;1.81;99.74
68977;SHT31;56029;52.568;13.588;2023-02-25T09:36:45;1.81;99.70
68977;SHT31;56029;52.568;13.588;2023-02-25T09:39:11;1.85;98.44
68977;SHT31;56029;52.568;13.588;2023-02-25T09:44:28;1.87;97.13
68977;SHT31;56029;52.568;13.588;2023-02-25T09:47:11;1.85;97.74
68977;SHT31;56029;52.568;13.588;2023-02-25T09:50:18;1.91;96.96
68977;SHT31;56029;52.568;13.588;2023-02-25T09:52:52;2.01;97.27
68977;SHT31;56029;52.568;13.588;2023-02-25T09:55:36;1.98;97.00
68977;SHT31;56029;52.568;13.588;2023-02-25T10:00:31;2.02;96.70
68977;SHT31;56029;52.568;13.588;2023-02-25T10:03:04;2.01;96.27
68977;SHT31;56029;52.568;13.588;2023-02-25T10:05:54;2.05;97.58
68977;SHT31;56029;52.568;13.588;2023-02-25T10:11:13;2.04;97.66
68977;SHT31;56029;52.568;13.588;2023-02-25T10:14:22;1.90;97.91
68977;SHT31;56029;52.568;13.588;2023-02-25T10:17:14;1.93;98.57
68977;SHT31;56029;52.568;13.588;2023-02-25T10:20:23;1.95;97.08
68977;SHT31;56029;52.568;13.588;2023-02-25T10:23:02;2.02;97.48
68977;SHT31;56029;52.568;13.588;2023-02-25T10:25:35;2.04;96.73
68977;SHT31;56029;52.568;13.588;2023-02-25T10:28:05;2.07;97.26
68977;SHT31;56029;52.568;13.588;2023-02-25T10:33:20;1.90;99.50
68977;SHT31;56029;52.568;13.588;2023-02-25T10:35:53;1.85;96.54
68977;SHT31;56029;52.568;13.588;2023-02-25T10:38:21;1.95;97.00
68977;SHT31;56029;52.568;13.588;2023-02-25T10:40:46;2.00;96.73
68977;SHT31;56029;52.568;13.588;2023-02-25T10:43:21;2.05;97.10
68977;SHT31;56029;52.568;13.588;2023-02-25T10:45:53;1.98;98.20
68977;SHT31;56029;52.568;13.588;2023-02-25T10:48:23;1.63;99.41
68977;SHT31;56029;52.568;13.588;2023-02-25T10:51:10;1.13;99.99
68977;SHT31;56029;52.568;13.588;2023-02-25T10:54:01;1.01;99.99
68977;SHT31;56029;52.568;13.588;2023-02-25T10:56:36;0.95;99.99
68977;SHT31;56029;52.568;13.588;2023-02-25T10:59:07;0.81;99.99
68977;SHT31;56029;52.568;13.588;2023-02-25T11:01:38;0.92;99.99
68977;SHT31;56029;52.568;13.588;2023-02-25T11:04:09;1.04;99.99
68977;SHT31;56029;52.568;13.588;2023-02-25T11:06:38;1.11;99.99
68977;SHT31;56029;52.568;13.588;2023-02-25T11:12:19;1.36;99.99
68977;SHT31;56029;52.568;13.588;2023-02-25T11:14:49;1.54;99.99
68977;SHT31;56029;52.568;13.588;2023-02-25T11:17:17;1.64;99.99
68977;SHT31;56029;52.568;13.588;2023-02-25T11:19:50;1.85;99.99
68977;SHT31;56029;52.568;13.588;2023-02-25T11:22:22;2.01;99.99
68977;SHT31;56029;52.568;13.588;2023-02-25T11:24:55;2.18;97.37
68977;SHT31;56029;52.568;13.588;2023-02-25T11:27:34;2.25;95.82
68977;SHT31;56029;52.568;13.588;2023-02-25T11:32:31;2.45;94.06
68977;SHT31;56029;52.568;13.588;2023-02-25T11:35:07;2.46;96.03
68977;SHT31;56029;52.568;13.588;2023-02-25T11:37:42;2.48;95.75
68977;SHT31;56029;52.568;13.588;2023-02-25T11:40:29;2.12;95.08
68977;SHT31;56029;52.568;13.588;2023-02-25T11:45:35;2.05;96.53
68977;SHT31;56029;52.568;13.588;2023-02-25T11:48:03;2.14;96.11
68977;SHT31;56029;52.568;13.588;2023-02-25T11:50:36;2.24;93.71
68977;SHT31;56029;52.568;13.588;2023-02-25T11:53:26;2.35;96.19
68977;SHT31;56029;52.568;13.588;2023-02-25T11:56:06;2.25;92.53
68977;SHT31;56029;52.568;13.588;2023-02-25T12:04:50;1.98;94.77
68977;SHT31;56029;52.568;13.588;2023-02-25T12:07:44;1.98;93.97
68977;SHT31;56029;52.568;13.588;2023-02-25T12:10:36;1.91;92.98
68977;SHT31;56029;52.568;13.588;2023-02-25T12:13:33;1.85;96.52
68977;SHT31;56029;52.568;13.588;2023-02-25T12:39:22;1.70;96.62
68977;SHT31;56029;52.568;13.588;2023-02-25T12:44:48;1.62;96.90
68977;SHT31;56029;52.568;13.588;2023-02-25T12:52:55;1.73;95.59
68977;SHT31;56029;52.568;13.588;2023-02-25T13:04:06;1.71;94.81
68977;SHT31;56029;52.568;13.588;2023-02-25T13:07:07;1.63;95.43
68977;SHT31;56029;52.568;13.588;2023-02-25T13:09:53;1.67;95.62
68977;SHT31;56029;52.568;13.588;2023-02-25T13:15:11;1.38;95.96
68977;SHT31;56029;52.568;13.588;2023-02-25T13:23:53;1.13;95.41
68977;SHT31;56029;52.568;13.588;2023-02-25T13:26:44;1.12;95.11
68977;SHT31;56029;52.568;13.588;2023-02-25T13:32:36;1.15;97.59
68977;SHT31;56029;52.568;13.588;2023-02-25T13:35:17;1.18;99.99
68977;SHT31;56029;52.568;13.588;2023-02-25T13:38:18;1.25;99.99
68977;SHT31;56029;52.568;13.588;2023-02-25T13:54:52;1.38;97.30
68977;SHT31;56029;52.568;13.588;2023-02-25T13:58:00;1.39;97.56
68977;SHT31;56029;52.568;13.588;2023-02-25T14:00:33;1.32;94.10
68977;SHT31;56029;52.568;13.588;2023-02-25T14:09:50;0.83;97.87
68977;SHT31;56029;52.568;13.588;2023-02-25T14:14:54;0.87;97.98
68977;SHT31;56029;52.568;13.588;2023-02-25T14:17:45;0.84;97.41
68977;SHT31;56029;52.568;13.588;2023-02-25T14:26:19;0.89;98.88
68977;SHT31;56029;52.568;13.588;2023-02-25T14:29:11;0.81;98.70
68977;SHT31;56029;52.568;13.588;2023-02-25T14:34:42;0.77;99.99
68977;SHT31;56029;52.568;13.588;2023-02-25T14:48:37;0.85;97.38
68977;SHT31;56029;52.568;13.588;2023-02-25T14:54:32;0.95;97.65
68977;SHT31;56029;52.568;13.588;2023-02-25T14:57:27;0.89;96.29
68977;SHT31;56029;52.568;13.588;2023-02-25T15:00:24;0.92;96.08
68977;SHT31;56029;52.568;13.588;2023-02-25T15:03:06;0.99;97.10
68977;SHT31;56029;52.568;13.588;2023-02-25T15:06:14;1.01;96.95
68977;SHT31;56029;52.568;13.588;2023-02-25T15:11:43;1.05;96.40
68977;SHT31;56029;52.568;13.588;2023-02-25T15:14:38;1.08;96.93
68977;SHT31;56029;52.568;13.588;2023-02-25T15:19:53;1.08;95.80
68977;SHT31;56029;52.568;13.588;2023-02-25T15:22:24;1.11;95.27
68977;SHT31;56029;52.568;13.588;2023-02-25T15:24:52;1.13;94.25
68977;SHT31;56029;52.568;13.588;2023-02-25T15:27:32;1.11;93.35
68977;SHT31;56029;52.568;13.588;2023-02-25T15:30:26;1.13;93.92
68977;SHT31;56029;52.568;13.588;2023-02-25T15:33:21;1.11;92.32
68977;SHT31;56029;52.568;13.588;2023-02-25T15:35:53;1.08;93.29
68977;SHT31;56029;52.568;13.588;2023-02-25T15:46:47;0.85;92.60
68977;SHT31;56029;52.568;13.588;2023-02-25T15:51:45;0.87;93.00
68977;SHT31;56029;52.568;13.588;2023-02-25T15:56:52;0.91;92.02
68977;SHT31;56029;52.568;13.588;2023-02-25T15:59:41;0.91;92.28
68977;SHT31;56029;52.568;13.588;2023-02-25T16:05:16;0.91;93.13
68977;SHT31;56029;52.568;13.588;2023-02-25T16:07:44;0.94;92.31
68977;SHT31;56029;52.568;13.588;2023-02-25T16:12:44;0.92;91.85
68977;SHT31;56029;52.568;13.588;2023-02-25T16:15:17;0.89;90.82
68977;SHT31;56029;52.568;13.588;2023-02-25T16:17:45;0.87;91.15
68977;SHT31;56029;52.568;13.588;2023-02-25T16:20:22;0.84;91.80
68977;SHT31;56029;52.568;13.588;2023-02-25T16:22:55;0.88;90.80
68977;SHT31;56029;52.568;13.588;2023-02-25T16:25:42;0.83;91.96
68977;SHT31;56029;52.568;13.588;2023-02-25T16:28:58;0.83;91.42
68977;SHT31;56029;52.568;13.588;2023-02-25T16:31:31;0.81;92.60
68977;SHT31;56029;52.568;13.588;2023-02-25T16:34:06;0.78;93.05
68977;SHT31;56029;52.568;13.588;2023-02-25T16:39:20;0.40;99.84
68977;SHT31;56029;52.568;13.588;2023-02-25T16:41:48;0.33;99.99
68977;SHT31;56029;52.568;13.588;2023-02-25T16:44:22;0.29;99.76
68977;SHT31;56029;52.568;13.588;2023-02-25T16:46:52;0.29;99.81
68977;SHT31;56029;52.568;13.588;2023-02-25T16:49:32;0.29;99.99
68977;SHT31;56029;52.568;13.588;2023-02-25T16:52:01;0.30;99.55
68977;SHT31;56029;52.568;13.588;2023-02-25T16:54:32;0.30;98.43
68977;SHT31;56029;52.568;13.588;2023-02-25T16:57:02;0.26;98.92
68977;SHT31;56029;52.568;13.588;2023-02-25T16:59:34;0.25;98.93
68977;SHT31;56029;52.568;13.588;2023-02-25T17:02:02;0.25;99.29
68977;SHT31;56029;52.568;13.588;2023-02-25T17:04:52;0.22;99.99
68977;SHT31;56029;52.568;13.588;2023-02-25T17:07:27;0.20;99.82
68977;SHT31;56029;52.568;13.588;2023-02-25T17:09:59;0.22;98.74
68977;SHT31;56029;52.568;13.588;2023-02-25T17:12:34;0.22;98.23
68977;SHT31;56029;52.568;13.588;2023-02-25T17:15:03;0.19;97.97
68977;SHT31;56029;52.568;13.588;2023-02-25T17:17:36;0.22;97.96
68977;SHT31;56029;52.568;13.588;2023-02-25T17:20:06;0.20;97.93
68977;SHT31;56029;52.568;13.588;2023-02-25T17:22:35;0.19;98.69
68977;SHT31;56029;52.568;13.588;2023-02-25T17:25:02;0.19;98.24
68977;SHT31;56029;52.568;13.588;2023-02-25T17:27:28;0.17;98.31
68977;SHT31;56029;52.568;13.588;2023-02-25T17:29:54;0.13;98.66
68977;SHT31;56029;52.568;13.588;2023-02-25T17:32:29;0.13;98.17
68977;SHT31;56029;52.568;13.588;2023-02-25T17:34:59;0.13;98.15
68977;SHT31;56029;52.568;13.588;2023-02-25T17:37:27;0.12;98.58
68977;SHT31;56029;52.568;13.588;2023-02-25T17:39:54;0.07;99.53
68977;SHT31;56029;52.568;13.588;2023-02-25T17:42:27;0.01;99.99
68977;SHT31;56029;52.568;13.588;2023-02-25T17:44:53;-0.02;99.99
68977;SHT31;56029;52.568;13.588;2023-02-25T17:47:26;-0.08;99.99
68977;SHT31;56029;52.568;13.588;2023-02-25T17:49:52;-0.11;99.99
68977;SHT31;56029;52.568;13.588;2023-02-25T17:52:21;-0.18;99.99
68977;SHT31;56029;52.568;13.588;2023-02-25T17:55:22;-0.18;99.99
68977;SHT31;56029;52.568;13.588;2023-02-25T17:57:47;-0.21;99.99
68977;SHT31;56029;52.568;13.588;2023-02-25T18:02:43;-0.22;99.10
68977;SHT31;56029;52.568;13.588;2023-02-25T18:07:39;-0.21;99.56
68977;SHT31;56029;52.568;13.588;2023-02-25T18:13:03;-0.23;98.84
68977;SHT31;56029;52.568;13.588;2023-02-25T18:15:31;-0.25;99.21
68977;SHT31;56029;52.568;13.588;2023-02-25T18:18:02;-0.23;99.99
68977;SHT31;56029;52.568;13.588;2023-02-25T18:20:40;-0.25;99.45
68977;SHT31;56029;52.568;13.588;2023-02-25T18:23:15;-0.23;99.99
68977;SHT31;56029;52.568;13.588;2023-02-25T18:25:45;-0.22;99.87
68977;SHT31;56029;52.568;13.588;2023-02-25T18:28:19;-0.25;99.99
68977;SHT31;56029;52.568;13.588;2023-02-25T18:30:50;-0.22;99.99
68977;SHT31;56029;52.568;13.588;2023-02-25T18:33:16;-0.21;99.99
68977;SHT31;56029;52.568;13.588;2023-02-25T18:35:45;-0.23;99.99
68977;SHT31;56029;52.568;13.588;2023-02-25T18:38:16;-0.25;99.99
68977;SHT31;56029;52.568;13.588;2023-02-25T18:40:43;-0.25;99.99
68977;SHT31;56029;52.568;13.588;2023-02-25T18:43:20;-0.29;99.99
68977;SHT31;56029;52.568;13.588;2023-02-25T18:45:56;-0.29;99.99
68977;SHT31;56029;52.568;13.588;2023-02-25T18:48:22;-0.29;99.99